sensor_id;sensor_type;location;lat;lon;timestamp;P1;durP1;ratioP1;P2;durP2;ratioP2
56511;SDS011;42408;53.238;5.686;2023-05-07T00:01:56;25.50;;;17.77;;
56511;SDS011;42408;53.238;5.686;2023-05-07T00:04:22;21.67;;;17.20;;
56511;SDS011;42408;53.238;5.686;2023-05-07T00:06:48;23.48;;;18.38;;
56511;SDS011;42408;53.238;5.686;2023-05-07T00:09:13;21.27;;;17.30;;
56511;SDS011;42408;53.238;5.686;2023-05-07T00:11:39;25.07;;;18.13;;
56511;SDS011;42408;53.238;5.686;2023-05-07T00:14:05;23.80;;;18.73;;
56511;SDS011;42408;53.238;5.686;2023-05-07T00:16:31;25.03;;;20.40;;
56511;SDS011;42408;53.238;5.686;2023-05-07T00:18:57;22.30;;;17.80;;
56511;SDS011;42408;53.238;5.686;2023-05-07T00:21:22;23.53;;;19.47;;
56511;SDS011;42408;53.238;5.686;2023-05-07T00:23:51;21.90;;;18.38;;
56511;SDS011;42408;53.238;5.686;2023-05-07T00:26:18;23.90;;;19.13;;
56511;SDS011;42408;53.238;5.686;2023-05-07T00:28:43;23.53;;;18.20;;
56511;SDS011;42408;53.238;5.686;2023-05-07T00:31:09;24.37;;;19.70;;
56511;SDS011;42408;53.238;5.686;2023-05-07T00:33:35;24.67;;;19.07;;
56511;SDS011;42408;53.238;5.686;2023-05-07T00:36:00;23.57;;;18.83;;
56511;SDS011;42408;53.238;5.686;2023-05-07T00:38:26;21.92;;;19.00;;
56511;SDS011;42408;53.238;5.686;2023-05-07T00:40:52;25.97;;;19.90;;
56511;SDS011;42408;53.238;5.686;2023-05-07T00:43:18;24.80;;;18.03;;
56511;SDS011;42408;53.238;5.686;2023-05-07T00:45:43;24.57;;;18.50;;
56511;SDS011;42408;53.238;5.686;2023-05-07T00:48:09;25.97;;;19.40;;
56511;SDS011;42408;53.238;5.686;2023-05-07T00:50:35;23.47;;;18.87;;
56511;SDS011;42408;53.238;5.686;2023-05-07T00:53:01;23.83;;;19.40;;
56511;SDS011;42408;53.238;5.686;2023-05-07T00:55:27;24.98;;;18.90;;
56511;SDS011;42408;53.238;5.686;2023-05-07T00:57:53;24.02;;;18.50;;
56511;SDS011;42408;53.238;5.686;2023-05-07T01:00:19;25.13;;;19.50;;
56511;SDS011;42408;53.238;5.686;2023-05-07T01:02:45;24.60;;;19.63;;
56511;SDS011;42408;53.238;5.686;2023-05-07T01:05:12;24.13;;;18.77;;
56511;SDS011;42408;53.238;5.686;2023-05-07T01:07:40;23.02;;;18.70;;
56511;SDS011;42408;53.238;5.686;2023-05-07T01:10:07;24.20;;;19.40;;
56511;SDS011;42408;53.238;5.686;2023-05-07T01:12:35;24.92;;;18.80;;
56511;SDS011;42408;53.238;5.686;2023-05-07T01:15:02;23.48;;;18.88;;
56511;SDS011;42408;53.238;5.686;2023-05-07T01:19:54;26.73;;;18.35;;
56511;SDS011;42408;53.238;5.686;2023-05-07T01:22:30;23.63;;;18.53;;
56511;SDS011;42408;53.238;5.686;2023-05-07T01:24:57;21.92;;;17.85;;
56511;SDS011;42408;53.238;5.686;2023-05-07T01:27:24;22.17;;;18.48;;
56511;SDS011;42408;53.238;5.686;2023-05-07T01:29:50;22.90;;;19.05;;
56511;SDS011;42408;53.238;5.686;2023-05-07T01:32:16;23.87;;;19.57;;
56511;SDS011;42408;53.238;5.686;2023-05-07T01:34:46;22.98;;;18.38;;
56511;SDS011;42408;53.238;5.686;2023-05-07T01:37:14;22.75;;;17.45;;
56511;SDS011;42408;53.238;5.686;2023-05-07T01:39:40;23.90;;;18.38;;
56511;SDS011;42408;53.238;5.686;2023-05-07T01:42:07;24.67;;;19.20;;
56511;SDS011;42408;53.238;5.686;2023-05-07T01:44:33;23.70;;;18.53;;
56511;SDS011;42408;53.238;5.686;2023-05-07T01:46:58;24.00;;;18.73;;
56511;SDS011;42408;53.238;5.686;2023-05-07T01:49:24;20.70;;;17.88;;
56511;SDS011;42408;53.238;5.686;2023-05-07T01:51:51;26.30;;;19.23;;
56511;SDS011;42408;53.238;5.686;2023-05-07T01:54:16;23.53;;;18.03;;
56511;SDS011;42408;53.238;5.686;2023-05-07T01:56:42;24.00;;;19.43;;
56511;SDS011;42408;53.238;5.686;2023-05-07T01:59:08;23.50;;;19.47;;
56511;SDS011;42408;53.238;5.686;2023-05-07T02:01:34;25.90;;;19.85;;
56511;SDS011;42408;53.238;5.686;2023-05-07T02:03:59;24.53;;;20.97;;
56511;SDS011;42408;53.238;5.686;2023-05-07T02:06:25;25.13;;;19.20;;
56511;SDS011;42408;53.238;5.686;2023-05-07T02:08:51;25.10;;;20.47;;
56511;SDS011;42408;53.238;5.686;2023-05-07T02:11:16;26.33;;;19.97;;
56511;SDS011;42408;53.238;5.686;2023-05-07T02:13:42;25.50;;;21.13;;
56511;SDS011;42408;53.238;5.686;2023-05-07T02:16:07;28.00;;;20.87;;
56511;SDS011;42408;53.238;5.686;2023-05-07T02:18:33;25.73;;;21.50;;
56511;SDS011;42408;53.238;5.686;2023-05-07T02:20:59;31.43;;;22.47;;
56511;SDS011;42408;53.238;5.686;2023-05-07T02:23:24;25.27;;;20.63;;
56511;SDS011;42408;53.238;5.686;2023-05-07T02:25:50;28.57;;;21.33;;
56511;SDS011;42408;53.238;5.686;2023-05-07T02:28:16;28.80;;;21.50;;
56511;SDS011;42408;53.238;5.686;2023-05-07T02:30:42;27.67;;;21.33;;
56511;SDS011;42408;53.238;5.686;2023-05-07T02:33:07;28.60;;;22.20;;
56511;SDS011;42408;53.238;5.686;2023-05-07T02:35:33;28.23;;;22.37;;
56511;SDS011;42408;53.238;5.686;2023-05-07T02:37:59;29.38;;;23.83;;
56511;SDS011;42408;53.238;5.686;2023-05-07T02:40:25;29.40;;;23.87;;
56511;SDS011;42408;53.238;5.686;2023-05-07T02:42:50;29.70;;;23.53;;
56511;SDS011;42408;53.238;5.686;2023-05-07T02:45:16;30.03;;;23.33;;
56511;SDS011;42408;53.238;5.686;2023-05-07T02:47:42;30.90;;;23.60;;
56511;SDS011;42408;53.238;5.686;2023-05-07T02:50:07;29.83;;;23.97;;
56511;SDS011;42408;53.238;5.686;2023-05-07T02:52:33;30.67;;;23.97;;
56511;SDS011;42408;53.238;5.686;2023-05-07T02:54:58;28.07;;;23.17;;
56511;SDS011;42408;53.238;5.686;2023-05-07T02:57:24;30.73;;;23.17;;
56511;SDS011;42408;53.238;5.686;2023-05-07T02:59:51;30.03;;;24.07;;
56511;SDS011;42408;53.238;5.686;2023-05-07T03:02:16;29.63;;;23.80;;
56511;SDS011;42408;53.238;5.686;2023-05-07T03:04:42;32.33;;;23.53;;
56511;SDS011;42408;53.238;5.686;2023-05-07T03:07:08;31.73;;;24.20;;
56511;SDS011;42408;53.238;5.686;2023-05-07T03:09:33;29.90;;;23.03;;
56511;SDS011;42408;53.238;5.686;2023-05-07T03:11:59;31.67;;;23.57;;
56511;SDS011;42408;53.238;5.686;2023-05-07T03:14:24;28.37;;;23.03;;
56511;SDS011;42408;53.238;5.686;2023-05-07T03:16:50;31.43;;;24.63;;
56511;SDS011;42408;53.238;5.686;2023-05-07T03:19:16;29.10;;;23.47;;
56511;SDS011;42408;53.238;5.686;2023-05-07T03:21:41;30.00;;;22.83;;
56511;SDS011;42408;53.238;5.686;2023-05-07T03:24:07;30.73;;;24.20;;
56511;SDS011;42408;53.238;5.686;2023-05-07T03:26:32;30.10;;;24.27;;
56511;SDS011;42408;53.238;5.686;2023-05-07T03:28:58;29.67;;;23.47;;
56511;SDS011;42408;53.238;5.686;2023-05-07T03:31:24;30.40;;;24.00;;
56511;SDS011;42408;53.238;5.686;2023-05-07T03:33:54;30.02;;;24.05;;
56511;SDS011;42408;53.238;5.686;2023-05-07T03:36:21;28.55;;;22.95;;
56511;SDS011;42408;53.238;5.686;2023-05-07T03:38:48;28.40;;;23.15;;
56511;SDS011;42408;53.238;5.686;2023-05-07T03:41:14;28.42;;;23.90;;
56511;SDS011;42408;53.238;5.686;2023-05-07T03:43:40;28.37;;;23.17;;
56511;SDS011;42408;53.238;5.686;2023-05-07T03:46:05;33.00;;;23.53;;
56511;SDS011;42408;53.238;5.686;2023-05-07T03:48:31;30.20;;;23.70;;
56511;SDS011;42408;53.238;5.686;2023-05-07T03:50:57;30.80;;;23.93;;
56511;SDS011;42408;53.238;5.686;2023-05-07T03:53:23;30.50;;;23.92;;
56511;SDS011;42408;53.238;5.686;2023-05-07T03:55:49;32.57;;;24.90;;
56511;SDS011;42408;53.238;5.686;2023-05-07T03:58:15;28.90;;;23.83;;
56511;SDS011;42408;53.238;5.686;2023-05-07T04:00:40;31.50;;;24.50;;
56511;SDS011;42408;53.238;5.686;2023-05-07T04:03:06;30.97;;;24.17;;
56511;SDS011;42408;53.238;5.686;2023-05-07T04:05:32;31.90;;;24.90;;
56511;SDS011;42408;53.238;5.686;2023-05-07T04:07:58;34.27;;;24.57;;
56511;SDS011;42408;53.238;5.686;2023-05-07T04:10:24;31.73;;;25.15;;
56511;SDS011;42408;53.238;5.686;2023-05-07T04:12:50;28.15;;;23.88;;
56511;SDS011;42408;53.238;5.686;2023-05-07T04:15:16;31.13;;;24.10;;
56511;SDS011;42408;53.238;5.686;2023-05-07T04:17:42;32.50;;;24.70;;
56511;SDS011;42408;53.238;5.686;2023-05-07T04:20:14;31.70;;;25.20;;
56511;SDS011;42408;53.238;5.686;2023-05-07T04:22:41;29.52;;;24.85;;
56511;SDS011;42408;53.238;5.686;2023-05-07T04:25:07;31.43;;;25.57;;
56511;SDS011;42408;53.238;5.686;2023-05-07T04:27:37;33.25;;;25.48;;
56511;SDS011;42408;53.238;5.686;2023-05-07T04:30:02;32.20;;;25.03;;
56511;SDS011;42408;53.238;5.686;2023-05-07T04:32:29;34.55;;;26.83;;
56511;SDS011;42408;53.238;5.686;2023-05-07T04:34:55;32.05;;;25.20;;
56511;SDS011;42408;53.238;5.686;2023-05-07T04:37:21;34.40;;;25.70;;
56511;SDS011;42408;53.238;5.686;2023-05-07T04:39:47;30.97;;;25.27;;
56511;SDS011;42408;53.238;5.686;2023-05-07T04:42:16;31.60;;;25.53;;
56511;SDS011;42408;53.238;5.686;2023-05-07T04:44:43;33.20;;;26.02;;
56511;SDS011;42408;53.238;5.686;2023-05-07T04:49:35;32.20;;;25.95;;
56511;SDS011;42408;53.238;5.686;2023-05-07T04:52:01;35.33;;;26.70;;
56511;SDS011;42408;53.238;5.686;2023-05-07T04:54:28;36.83;;;27.02;;
56511;SDS011;42408;53.238;5.686;2023-05-07T04:56:54;36.00;;;26.58;;
56511;SDS011;42408;53.238;5.686;2023-05-07T04:59:20;35.03;;;27.93;;
56511;SDS011;42408;53.238;5.686;2023-05-07T05:01:46;37.37;;;26.67;;
56511;SDS011;42408;53.238;5.686;2023-05-07T05:04:12;37.10;;;28.17;;
56511;SDS011;42408;53.238;5.686;2023-05-07T05:06:38;35.20;;;26.90;;
56511;SDS011;42408;53.238;5.686;2023-05-07T05:09:03;36.57;;;28.30;;
56511;SDS011;42408;53.238;5.686;2023-05-07T05:11:30;36.80;;;27.38;;
56511;SDS011;42408;53.238;5.686;2023-05-07T05:13:56;35.90;;;27.38;;
56511;SDS011;42408;53.238;5.686;2023-05-07T05:16:21;39.63;;;28.90;;
56511;SDS011;42408;53.238;5.686;2023-05-07T05:18:47;41.57;;;30.27;;
56511;SDS011;42408;53.238;5.686;2023-05-07T05:21:13;39.00;;;28.60;;
56511;SDS011;42408;53.238;5.686;2023-05-07T05:23:39;38.60;;;28.77;;
56511;SDS011;42408;53.238;5.686;2023-05-07T05:26:04;39.10;;;28.13;;
56511;SDS011;42408;53.238;5.686;2023-05-07T05:28:30;42.07;;;29.00;;
56511;SDS011;42408;53.238;5.686;2023-05-07T05:30:56;41.20;;;30.50;;
56511;SDS011;42408;53.238;5.686;2023-05-07T05:33:21;40.07;;;29.77;;
56511;SDS011;42408;53.238;5.686;2023-05-07T05:35:47;40.57;;;28.70;;
56511;SDS011;42408;53.238;5.686;2023-05-07T05:38:13;39.63;;;29.70;;
56511;SDS011;42408;53.238;5.686;2023-05-07T05:40:38;43.27;;;31.27;;
56511;SDS011;42408;53.238;5.686;2023-05-07T05:43:05;41.53;;;30.50;;
56511;SDS011;42408;53.238;5.686;2023-05-07T05:45:31;42.78;;;30.10;;
56511;SDS011;42408;53.238;5.686;2023-05-07T05:47:56;43.53;;;30.73;;
56511;SDS011;42408;53.238;5.686;2023-05-07T05:50:22;41.80;;;29.83;;
56511;SDS011;42408;53.238;5.686;2023-05-07T05:52:48;42.20;;;29.77;;
56511;SDS011;42408;53.238;5.686;2023-05-07T05:55:14;42.57;;;30.13;;
56511;SDS011;42408;53.238;5.686;2023-05-07T05:57:39;41.37;;;29.70;;
56511;SDS011;42408;53.238;5.686;2023-05-07T06:00:06;43.73;;;29.90;;
56511;SDS011;42408;53.238;5.686;2023-05-07T06:02:32;45.25;;;30.67;;
56511;SDS011;42408;53.238;5.686;2023-05-07T06:04:58;42.93;;;31.83;;
56511;SDS011;42408;53.238;5.686;2023-05-07T06:07:24;41.80;;;29.83;;
56511;SDS011;42408;53.238;5.686;2023-05-07T06:09:50;41.27;;;29.40;;
56511;SDS011;42408;53.238;5.686;2023-05-07T06:12:15;41.90;;;29.83;;
56511;SDS011;42408;53.238;5.686;2023-05-07T06:14:42;40.97;;;30.43;;
56511;SDS011;42408;53.238;5.686;2023-05-07T06:17:08;41.25;;;29.38;;
56511;SDS011;42408;53.238;5.686;2023-05-07T06:19:34;41.70;;;29.87;;
56511;SDS011;42408;53.238;5.686;2023-05-07T06:22:00;42.87;;;32.83;;
56511;SDS011;42408;53.238;5.686;2023-05-07T06:24:26;42.83;;;31.73;;
56511;SDS011;42408;53.238;5.686;2023-05-07T06:26:52;42.43;;;32.00;;
56511;SDS011;42408;53.238;5.686;2023-05-07T06:29:18;43.40;;;30.83;;
56511;SDS011;42408;53.238;5.686;2023-05-07T06:31:43;38.17;;;29.80;;
56511;SDS011;42408;53.238;5.686;2023-05-07T06:34:09;42.30;;;31.07;;
56511;SDS011;42408;53.238;5.686;2023-05-07T06:36:35;39.77;;;28.77;;
56511;SDS011;42408;53.238;5.686;2023-05-07T06:39:00;43.53;;;30.93;;
56511;SDS011;42408;53.238;5.686;2023-05-07T06:41:26;41.33;;;31.87;;
56511;SDS011;42408;53.238;5.686;2023-05-07T06:43:52;39.17;;;28.80;;
56511;SDS011;42408;53.238;5.686;2023-05-07T06:46:17;38.40;;;28.60;;
56511;SDS011;42408;53.238;5.686;2023-05-07T06:48:43;42.57;;;31.33;;
56511;SDS011;42408;53.238;5.686;2023-05-07T06:51:09;38.43;;;29.37;;
56511;SDS011;42408;53.238;5.686;2023-05-07T06:53:35;36.07;;;27.40;;
56511;SDS011;42408;53.238;5.686;2023-05-07T06:56:00;35.78;;;29.42;;
56511;SDS011;42408;53.238;5.686;2023-05-07T06:58:26;38.67;;;29.70;;
56511;SDS011;42408;53.238;5.686;2023-05-07T07:00:52;38.40;;;27.90;;
56511;SDS011;42408;53.238;5.686;2023-05-07T07:03:17;36.33;;;26.87;;
56511;SDS011;42408;53.238;5.686;2023-05-07T07:05:43;40.73;;;29.23;;
56511;SDS011;42408;53.238;5.686;2023-05-07T07:08:09;35.33;;;28.00;;
56511;SDS011;42408;53.238;5.686;2023-05-07T07:10:35;37.88;;;28.17;;
56511;SDS011;42408;53.238;5.686;2023-05-07T07:13:01;37.47;;;28.60;;
56511;SDS011;42408;53.238;5.686;2023-05-07T07:15:26;39.97;;;28.47;;
56511;SDS011;42408;53.238;5.686;2023-05-07T07:17:52;40.00;;;28.30;;
56511;SDS011;42408;53.238;5.686;2023-05-07T07:20:18;37.20;;;28.17;;
56511;SDS011;42408;53.238;5.686;2023-05-07T07:22:43;35.70;;;27.37;;
56511;SDS011;42408;53.238;5.686;2023-05-07T07:25:09;37.03;;;27.90;;
56511;SDS011;42408;53.238;5.686;2023-05-07T07:27:36;35.28;;;28.10;;
56511;SDS011;42408;53.238;5.686;2023-05-07T07:30:02;35.55;;;28.17;;
56511;SDS011;42408;53.238;5.686;2023-05-07T07:32:28;35.30;;;26.98;;
56511;SDS011;42408;53.238;5.686;2023-05-07T07:34:54;36.13;;;26.20;;
56511;SDS011;42408;53.238;5.686;2023-05-07T07:37:19;32.90;;;25.60;;
56511;SDS011;42408;53.238;5.686;2023-05-07T07:39:45;32.23;;;26.10;;
56511;SDS011;42408;53.238;5.686;2023-05-07T07:42:10;37.23;;;27.40;;
56511;SDS011;42408;53.238;5.686;2023-05-07T07:44:36;34.03;;;26.27;;
56511;SDS011;42408;53.238;5.686;2023-05-07T07:47:02;34.40;;;25.80;;
56511;SDS011;42408;53.238;5.686;2023-05-07T07:49:27;32.67;;;25.57;;
56511;SDS011;42408;53.238;5.686;2023-05-07T07:51:53;35.47;;;26.63;;
56511;SDS011;42408;53.238;5.686;2023-05-07T07:54:19;33.63;;;24.83;;
56511;SDS011;42408;53.238;5.686;2023-05-07T07:56:44;31.03;;;25.30;;
56511;SDS011;42408;53.238;5.686;2023-05-07T07:59:10;32.70;;;25.10;;
56511;SDS011;42408;53.238;5.686;2023-05-07T08:01:36;32.47;;;25.30;;
56511;SDS011;42408;53.238;5.686;2023-05-07T08:04:01;32.57;;;25.30;;
56511;SDS011;42408;53.238;5.686;2023-05-07T08:06:28;32.65;;;26.52;;
56511;SDS011;42408;53.238;5.686;2023-05-07T08:08:54;31.33;;;24.67;;
56511;SDS011;42408;53.238;5.686;2023-05-07T08:11:20;30.07;;;23.50;;
56511;SDS011;42408;53.238;5.686;2023-05-07T08:13:46;28.35;;;23.25;;
56511;SDS011;42408;53.238;5.686;2023-05-07T08:16:12;29.52;;;22.25;;
56511;SDS011;42408;53.238;5.686;2023-05-07T08:18:38;27.38;;;23.20;;
56511;SDS011;42408;53.238;5.686;2023-05-07T08:21:04;28.85;;;23.52;;
56511;SDS011;42408;53.238;5.686;2023-05-07T08:23:30;28.30;;;22.47;;
56511;SDS011;42408;53.238;5.686;2023-05-07T08:25:56;28.70;;;22.10;;
56511;SDS011;42408;53.238;5.686;2023-05-07T08:28:21;27.50;;;23.80;;
56511;SDS011;42408;53.238;5.686;2023-05-07T08:30:49;30.67;;;24.02;;
56511;SDS011;42408;53.238;5.686;2023-05-07T08:33:15;30.37;;;23.07;;
56511;SDS011;42408;53.238;5.686;2023-05-07T08:35:41;29.23;;;22.90;;
56511;SDS011;42408;53.238;5.686;2023-05-07T08:38:06;28.73;;;23.00;;
56511;SDS011;42408;53.238;5.686;2023-05-07T08:40:35;27.50;;;22.17;;
56511;SDS011;42408;53.238;5.686;2023-05-07T08:43:04;26.80;;;21.95;;
56511;SDS011;42408;53.238;5.686;2023-05-07T08:45:31;28.98;;;22.30;;
56511;SDS011;42408;53.238;5.686;2023-05-07T08:47:59;25.08;;;21.13;;
56511;SDS011;42408;53.238;5.686;2023-05-07T08:50:26;25.25;;;20.55;;
56511;SDS011;42408;53.238;5.686;2023-05-07T08:52:52;25.80;;;20.27;;
56511;SDS011;42408;53.238;5.686;2023-05-07T08:55:18;25.53;;;19.87;;
56511;SDS011;42408;53.238;5.686;2023-05-07T08:57:45;26.10;;;20.63;;
56511;SDS011;42408;53.238;5.686;2023-05-07T09:02:37;25.75;;;20.42;;
56511;SDS011;42408;53.238;5.686;2023-05-07T09:05:03;22.73;;;19.20;;
56511;SDS011;42408;53.238;5.686;2023-05-07T09:07:30;21.23;;;18.30;;
56511;SDS011;42408;53.238;5.686;2023-05-07T09:09:56;25.38;;;20.90;;
56511;SDS011;42408;53.238;5.686;2023-05-07T09:14:48;24.85;;;19.20;;
56511;SDS011;42408;53.238;5.686;2023-05-07T09:17:18;24.17;;;19.42;;
56511;SDS011;42408;53.238;5.686;2023-05-07T09:19:44;24.23;;;19.52;;
56511;SDS011;42408;53.238;5.686;2023-05-07T09:22:13;24.52;;;20.65;;
56511;SDS011;42408;53.238;5.686;2023-05-07T09:24:39;23.95;;;18.42;;
56511;SDS011;42408;53.238;5.686;2023-05-07T09:27:05;25.20;;;19.73;;
56511;SDS011;42408;53.238;5.686;2023-05-07T09:29:32;25.52;;;19.42;;
56511;SDS011;42408;53.238;5.686;2023-05-07T09:32:01;24.05;;;20.35;;
56511;SDS011;42408;53.238;5.686;2023-05-07T09:34:29;23.75;;;18.42;;
56511;SDS011;42408;53.238;5.686;2023-05-07T09:36:55;22.45;;;19.45;;
56511;SDS011;42408;53.238;5.686;2023-05-07T09:39:21;23.52;;;19.38;;
56511;SDS011;42408;53.238;5.686;2023-05-07T09:41:48;23.17;;;19.35;;
56511;SDS011;42408;53.238;5.686;2023-05-07T09:44:16;23.88;;;19.73;;
56511;SDS011;42408;53.238;5.686;2023-05-07T09:46:42;23.48;;;19.63;;
56511;SDS011;42408;53.238;5.686;2023-05-07T09:49:12;25.65;;;20.98;;
56511;SDS011;42408;53.238;5.686;2023-05-07T09:51:47;24.67;;;20.10;;
56511;SDS011;42408;53.238;5.686;2023-05-07T09:54:17;24.60;;;19.38;;
56511;SDS011;42408;53.238;5.686;2023-05-07T09:56:44;25.27;;;20.38;;
56511;SDS011;42408;53.238;5.686;2023-05-07T09:59:14;31.55;;;19.45;;
56511;SDS011;42408;53.238;5.686;2023-05-07T10:01:41;26.15;;;19.92;;
56511;SDS011;42408;53.238;5.686;2023-05-07T10:04:09;24.40;;;20.85;;
56511;SDS011;42408;53.238;5.686;2023-05-07T10:06:38;24.13;;;20.67;;
56511;SDS011;42408;53.238;5.686;2023-05-07T10:09:05;25.00;;;20.63;;
56511;SDS011;42408;53.238;5.686;2023-05-07T10:11:34;25.05;;;21.63;;
56511;SDS011;42408;53.238;5.686;2023-05-07T10:14:01;24.73;;;20.35;;
56511;SDS011;42408;53.238;5.686;2023-05-07T10:16:29;23.60;;;19.77;;
56511;SDS011;42408;53.238;5.686;2023-05-07T10:18:58;24.85;;;19.42;;
56511;SDS011;42408;53.238;5.686;2023-05-07T10:21:24;24.92;;;19.73;;
56511;SDS011;42408;53.238;5.686;2023-05-07T10:23:57;23.88;;;19.13;;
56511;SDS011;42408;53.238;5.686;2023-05-07T10:26:38;22.65;;;18.92;;
56511;SDS011;42408;53.238;5.686;2023-05-07T10:29:11;24.58;;;20.45;;
56511;SDS011;42408;53.238;5.686;2023-05-07T10:32:05;22.17;;;19.77;;
56511;SDS011;42408;53.238;5.686;2023-05-07T10:34:50;23.17;;;18.63;;
56511;SDS011;42408;53.238;5.686;2023-05-07T10:37:20;24.08;;;20.20;;
56511;SDS011;42408;53.238;5.686;2023-05-07T10:39:46;23.02;;;20.17;;
56511;SDS011;42408;53.238;5.686;2023-05-07T10:42:13;25.30;;;20.92;;
56511;SDS011;42408;53.238;5.686;2023-05-07T10:44:39;23.90;;;20.90;;
56511;SDS011;42408;53.238;5.686;2023-05-07T10:47:12;22.43;;;19.80;;
56511;SDS011;42408;53.238;5.686;2023-05-07T10:52:11;24.42;;;20.02;;
56511;SDS011;42408;53.238;5.686;2023-05-07T10:54:38;24.60;;;20.63;;
56511;SDS011;42408;53.238;5.686;2023-05-07T11:00:00;25.15;;;20.15;;
56511;SDS011;42408;53.238;5.686;2023-05-07T11:05:23;23.10;;;18.98;;
56511;SDS011;42408;53.238;5.686;2023-05-07T11:08:02;23.23;;;20.00;;
56511;SDS011;42408;53.238;5.686;2023-05-07T11:13:42;23.83;;;19.63;;
56511;SDS011;42408;53.238;5.686;2023-05-07T11:16:18;21.08;;;18.50;;
56511;SDS011;42408;53.238;5.686;2023-05-07T11:18:49;23.02;;;20.42;;
56511;SDS011;42408;53.238;5.686;2023-05-07T11:24:03;23.25;;;20.00;;
56511;SDS011;42408;53.238;5.686;2023-05-07T11:26:31;24.80;;;20.38;;
56511;SDS011;42408;53.238;5.686;2023-05-07T11:29:14;23.90;;;20.63;;
56511;SDS011;42408;53.238;5.686;2023-05-07T11:31:42;25.52;;;21.98;;
56511;SDS011;42408;53.238;5.686;2023-05-07T11:34:08;24.43;;;20.63;;
56511;SDS011;42408;53.238;5.686;2023-05-07T11:36:33;26.00;;;22.35;;
56511;SDS011;42408;53.238;5.686;2023-05-07T11:38:59;21.77;;;19.33;;
56511;SDS011;42408;53.238;5.686;2023-05-07T11:41:37;23.85;;;20.88;;
56511;SDS011;42408;53.238;5.686;2023-05-07T11:44:03;23.95;;;19.52;;
56511;SDS011;42408;53.238;5.686;2023-05-07T11:46:28;24.48;;;20.42;;
56511;SDS011;42408;53.238;5.686;2023-05-07T11:48:55;23.23;;;20.70;;
56511;SDS011;42408;53.238;5.686;2023-05-07T11:51:22;23.50;;;20.73;;
56511;SDS011;42408;53.238;5.686;2023-05-07T11:53:51;24.88;;;20.17;;
56511;SDS011;42408;53.238;5.686;2023-05-07T11:56:17;23.15;;;20.00;;
56511;SDS011;42408;53.238;5.686;2023-05-07T11:58:43;23.10;;;19.80;;
56511;SDS011;42408;53.238;5.686;2023-05-07T12:01:12;23.63;;;20.70;;
56511;SDS011;42408;53.238;5.686;2023-05-07T12:03:41;24.73;;;20.73;;
56511;SDS011;42408;53.238;5.686;2023-05-07T12:06:10;23.88;;;21.20;;
56511;SDS011;42408;53.238;5.686;2023-05-07T12:08:38;24.20;;;20.98;;
56511;SDS011;42408;53.238;5.686;2023-05-07T12:11:06;26.23;;;20.52;;
56511;SDS011;42408;53.238;5.686;2023-05-07T12:13:33;22.98;;;20.48;;
56511;SDS011;42408;53.238;5.686;2023-05-07T12:15:59;23.30;;;20.10;;
56511;SDS011;42408;53.238;5.686;2023-05-07T12:18:28;23.35;;;19.88;;
56511;SDS011;42408;53.238;5.686;2023-05-07T12:20:54;22.13;;;19.80;;
56511;SDS011;42408;53.238;5.686;2023-05-07T12:23:21;22.90;;;20.10;;
56511;SDS011;42408;53.238;5.686;2023-05-07T12:25:47;23.05;;;20.17;;
56511;SDS011;42408;53.238;5.686;2023-05-07T12:28:13;24.42;;;20.23;;
56511;SDS011;42408;53.238;5.686;2023-05-07T12:30:43;23.23;;;20.00;;
56511;SDS011;42408;53.238;5.686;2023-05-07T12:33:10;22.15;;;19.75;;
56511;SDS011;42408;53.238;5.686;2023-05-07T12:35:39;21.48;;;18.38;;
56511;SDS011;42408;53.238;5.686;2023-05-07T12:38:10;22.92;;;20.13;;
56511;SDS011;42408;53.238;5.686;2023-05-07T12:40:49;23.45;;;20.13;;
56511;SDS011;42408;53.238;5.686;2023-05-07T12:43:24;20.98;;;18.17;;
56511;SDS011;42408;53.238;5.686;2023-05-07T12:45:51;23.15;;;20.45;;
56511;SDS011;42408;53.238;5.686;2023-05-07T12:48:19;25.48;;;20.27;;
56511;SDS011;42408;53.238;5.686;2023-05-07T12:50:45;22.98;;;18.98;;
56511;SDS011;42408;53.238;5.686;2023-05-07T12:53:19;26.13;;;18.63;;
56511;SDS011;42408;53.238;5.686;2023-05-07T12:55:47;21.75;;;18.58;;
56511;SDS011;42408;53.238;5.686;2023-05-07T12:58:16;17.90;;;15.73;;
56511;SDS011;42408;53.238;5.686;2023-05-07T13:00:42;21.52;;;16.77;;
56511;SDS011;42408;53.238;5.686;2023-05-07T13:03:08;20.38;;;17.17;;
56511;SDS011;42408;53.238;5.686;2023-05-07T13:05:34;21.48;;;17.65;;
56511;SDS011;42408;53.238;5.686;2023-05-07T13:08:00;20.42;;;18.25;;
56511;SDS011;42408;53.238;5.686;2023-05-07T13:10:26;20.05;;;17.55;;
56511;SDS011;42408;53.238;5.686;2023-05-07T13:12:53;21.02;;;18.83;;
56511;SDS011;42408;53.238;5.686;2023-05-07T13:15:19;20.93;;;18.30;;
56511;SDS011;42408;53.238;5.686;2023-05-07T13:17:45;19.52;;;17.45;;
56511;SDS011;42408;53.238;5.686;2023-05-07T13:20:11;19.75;;;17.73;;
56511;SDS011;42408;53.238;5.686;2023-05-07T13:22:40;22.08;;;16.35;;
56511;SDS011;42408;53.238;5.686;2023-05-07T13:25:06;19.67;;;17.57;;
56511;SDS011;42408;53.238;5.686;2023-05-07T13:27:32;18.48;;;16.05;;
56511;SDS011;42408;53.238;5.686;2023-05-07T13:30:01;19.02;;;16.58;;
56511;SDS011;42408;53.238;5.686;2023-05-07T13:32:28;21.20;;;16.75;;
56511;SDS011;42408;53.238;5.686;2023-05-07T13:34:54;17.70;;;15.40;;
56511;SDS011;42408;53.238;5.686;2023-05-07T13:37:20;17.10;;;14.80;;
56511;SDS011;42408;53.238;5.686;2023-05-07T13:39:46;16.90;;;15.13;;
56511;SDS011;42408;53.238;5.686;2023-05-07T13:42:11;16.50;;;14.80;;
56511;SDS011;42408;53.238;5.686;2023-05-07T13:44:37;18.07;;;16.17;;
56511;SDS011;42408;53.238;5.686;2023-05-07T13:47:03;18.33;;;15.13;;
56511;SDS011;42408;53.238;5.686;2023-05-07T13:49:28;17.47;;;15.67;;
56511;SDS011;42408;53.238;5.686;2023-05-07T13:51:54;17.98;;;16.00;;
56511;SDS011;42408;53.238;5.686;2023-05-07T13:54:20;17.60;;;14.95;;
56511;SDS011;42408;53.238;5.686;2023-05-07T13:56:46;18.15;;;16.15;;
56511;SDS011;42408;53.238;5.686;2023-05-07T13:59:12;19.85;;;17.75;;
56511;SDS011;42408;53.238;5.686;2023-05-07T14:01:39;18.95;;;16.98;;
56511;SDS011;42408;53.238;5.686;2023-05-07T14:04:05;20.00;;;16.77;;
56511;SDS011;42408;53.238;5.686;2023-05-07T14:06:31;19.23;;;17.13;;
56511;SDS011;42408;53.238;5.686;2023-05-07T14:08:56;21.87;;;18.17;;
56511;SDS011;42408;53.238;5.686;2023-05-07T14:13:48;18.60;;;16.70;;
56511;SDS011;42408;53.238;5.686;2023-05-07T14:16:14;19.10;;;16.60;;
56511;SDS011;42408;53.238;5.686;2023-05-07T14:18:40;19.65;;;17.00;;
56511;SDS011;42408;53.238;5.686;2023-05-07T14:21:05;18.27;;;16.17;;
56511;SDS011;42408;53.238;5.686;2023-05-07T14:23:32;18.67;;;16.63;;
56511;SDS011;42408;53.238;5.686;2023-05-07T14:25:57;17.90;;;16.00;;
56511;SDS011;42408;53.238;5.686;2023-05-07T14:28:23;19.03;;;17.03;;
56511;SDS011;42408;53.238;5.686;2023-05-07T14:30:49;18.30;;;16.35;;
56511;SDS011;42408;53.238;5.686;2023-05-07T14:33:15;18.80;;;16.80;;
56511;SDS011;42408;53.238;5.686;2023-05-07T14:35:40;18.63;;;16.73;;
56511;SDS011;42408;53.238;5.686;2023-05-07T14:38:06;19.93;;;17.33;;
56511;SDS011;42408;53.238;5.686;2023-05-07T14:40:32;19.27;;;16.63;;
56511;SDS011;42408;53.238;5.686;2023-05-07T14:42:57;19.03;;;17.03;;
56511;SDS011;42408;53.238;5.686;2023-05-07T14:45:23;18.07;;;16.00;;